sensor_id;sensor_type;location;lat;lon;timestamp;P1;durP1;ratioP1;P2;durP2;ratioP2
82417;SDS011;72059;53.734;10.260;2023-11-22T00:02:01;3.20;;;1.87;;
82417;SDS011;72059;53.734;10.260;2023-11-22T00:04:29;2.60;;;1.70;;
82417;SDS011;72059;53.734;10.260;2023-11-22T00:06:56;2.50;;;1.47;;
82417;SDS011;72059;53.734;10.260;2023-11-22T00:09:23;2.85;;;2.10;;
82417;SDS011;72059;53.734;10.260;2023-11-22T00:11:51;2.27;;;1.72;;
82417;SDS011;72059;53.734;10.260;2023-11-22T00:14:18;2.40;;;1.85;;
82417;SDS011;72059;53.734;10.260;2023-11-22T00:16:47;3.85;;;2.50;;
82417;SDS011;72059;53.734;10.260;2023-11-22T00:19:14;3.27;;;2.42;;
82417;SDS011;72059;53.734;10.260;2023-11-22T00:21:43;2.98;;;2.25;;
82417;SDS011;72059;53.734;10.260;2023-11-22T00:24:11;3.42;;;2.10;;
82417;SDS011;72059;53.734;10.260;2023-11-22T00:26:38;3.67;;;2.12;;
82417;SDS011;72059;53.734;10.260;2023-11-22T00:29:07;2.83;;;1.90;;
82417;SDS011;72059;53.734;10.260;2023-11-22T00:31:34;4.20;;;2.05;;
82417;SDS011;72059;53.734;10.260;2023-11-22T00:34:01;3.60;;;2.05;;
82417;SDS011;72059;53.734;10.260;2023-11-22T00:36:29;5.28;;;2.15;;
82417;SDS011;72059;53.734;10.260;2023-11-22T00:38:56;2.30;;;1.65;;
82417;SDS011;72059;53.734;10.260;2023-11-22T00:41:24;3.70;;;2.00;;
82417;SDS011;72059;53.734;10.260;2023-11-22T00:43:54;3.20;;;2.08;;
82417;SDS011;72059;53.734;10.260;2023-11-22T00:46:22;3.22;;;2.17;;
82417;SDS011;72059;53.734;10.260;2023-11-22T00:48:49;3.77;;;2.60;;
82417;SDS011;72059;53.734;10.260;2023-11-22T00:51:16;2.90;;;2.05;;
82417;SDS011;72059;53.734;10.260;2023-11-22T00:53:45;3.33;;;1.85;;
82417;SDS011;72059;53.734;10.260;2023-11-22T00:56:12;2.60;;;1.75;;
82417;SDS011;72059;53.734;10.260;2023-11-22T00:58:40;2.30;;;1.60;;
82417;SDS011;72059;53.734;10.260;2023-11-22T01:01:08;2.40;;;1.77;;
82417;SDS011;72059;53.734;10.260;2023-11-22T01:03:36;2.17;;;1.70;;
82417;SDS011;72059;53.734;10.260;2023-11-22T01:06:04;2.40;;;1.30;;
82417;SDS011;72059;53.734;10.260;2023-11-22T01:08:32;1.52;;;1.32;;
82417;SDS011;72059;53.734;10.260;2023-11-22T01:11:01;1.62;;;1.52;;
82417;SDS011;72059;53.734;10.260;2023-11-22T01:13:33;2.80;;;1.90;;
82417;SDS011;72059;53.734;10.260;2023-11-22T01:16:02;2.35;;;1.80;;
82417;SDS011;72059;53.734;10.260;2023-11-22T01:18:30;2.17;;;1.70;;
82417;SDS011;72059;53.734;10.260;2023-11-22T01:20:57;1.50;;;1.40;;
82417;SDS011;72059;53.734;10.260;2023-11-22T01:23:25;2.42;;;1.77;;
82417;SDS011;72059;53.734;10.260;2023-11-22T01:25:53;3.72;;;1.72;;
82417;SDS011;72059;53.734;10.260;2023-11-22T01:28:21;3.22;;;1.60;;
82417;SDS011;72059;53.734;10.260;2023-11-22T01:30:48;2.10;;;1.50;;
82417;SDS011;72059;53.734;10.260;2023-11-22T01:33:15;2.12;;;1.50;;
82417;SDS011;72059;53.734;10.260;2023-11-22T01:35:43;1.82;;;1.72;;
82417;SDS011;72059;53.734;10.260;2023-11-22T01:38:10;1.50;;;1.40;;
82417;SDS011;72059;53.734;10.260;2023-11-22T01:40:44;1.50;;;1.35;;
82417;SDS011;72059;53.734;10.260;2023-11-22T01:43:14;1.50;;;1.37;;
82417;SDS011;72059;53.734;10.260;2023-11-22T01:45:43;2.27;;;1.35;;
82417;SDS011;72059;53.734;10.260;2023-11-22T01:48:11;1.40;;;1.30;;
82417;SDS011;72059;53.734;10.260;2023-11-22T01:50:39;2.22;;;2.02;;
82417;SDS011;72059;53.734;10.260;2023-11-22T01:53:10;3.50;;;2.00;;
82417;SDS011;72059;53.734;10.260;2023-11-22T01:55:41;2.30;;;2.10;;
82417;SDS011;72059;53.734;10.260;2023-11-22T01:58:10;2.40;;;2.20;;
82417;SDS011;72059;53.734;10.260;2023-11-22T02:00:50;3.12;;;2.20;;
82417;SDS011;72059;53.734;10.260;2023-11-22T02:03:18;2.27;;;2.08;;
82417;SDS011;72059;53.734;10.260;2023-11-22T02:05:46;2.72;;;2.30;;
82417;SDS011;72059;53.734;10.260;2023-11-22T02:08:14;1.70;;;1.60;;
82417;SDS011;72059;53.734;10.260;2023-11-22T02:10:44;3.02;;;1.95;;
82417;SDS011;72059;53.734;10.260;2023-11-22T02:13:13;2.70;;;2.30;;
82417;SDS011;72059;53.734;10.260;2023-11-22T02:15:40;3.90;;;2.12;;
82417;SDS011;72059;53.734;10.260;2023-11-22T02:18:08;2.10;;;1.90;;
82417;SDS011;72059;53.734;10.260;2023-11-22T02:20:35;2.33;;;2.02;;
82417;SDS011;72059;53.734;10.260;2023-11-22T02:23:12;2.37;;;2.10;;
82417;SDS011;72059;53.734;10.260;2023-11-22T02:25:35;1.75;;;1.65;;
82417;SDS011;72059;53.734;10.260;2023-11-22T02:28:02;3.52;;;2.83;;
82417;SDS011;72059;53.734;10.260;2023-11-22T02:30:30;5.25;;;3.17;;
82417;SDS011;72059;53.734;10.260;2023-11-22T02:32:57;3.62;;;3.05;;
82417;SDS011;72059;53.734;10.260;2023-11-22T02:35:24;4.05;;;2.90;;
82417;SDS011;72059;53.734;10.260;2023-11-22T02:37:57;2.75;;;2.55;;
82417;SDS011;72059;53.734;10.260;2023-11-22T02:40:25;3.70;;;2.95;;
82417;SDS011;72059;53.734;10.260;2023-11-22T02:42:54;2.60;;;2.27;;
82417;SDS011;72059;53.734;10.260;2023-11-22T02:45:26;2.92;;;2.62;;
82417;SDS011;72059;53.734;10.260;2023-11-22T02:47:55;2.80;;;2.35;;
82417;SDS011;72059;53.734;10.260;2023-11-22T02:50:22;4.62;;;2.92;;
82417;SDS011;72059;53.734;10.260;2023-11-22T02:52:51;2.80;;;2.50;;
82417;SDS011;72059;53.734;10.260;2023-11-22T02:55:18;2.60;;;2.35;;
82417;SDS011;72059;53.734;10.260;2023-11-22T02:57:45;3.42;;;2.45;;
82417;SDS011;72059;53.734;10.260;2023-11-22T03:00:13;4.15;;;2.52;;
82417;SDS011;72059;53.734;10.260;2023-11-22T03:02:41;3.58;;;2.60;;
82417;SDS011;72059;53.734;10.260;2023-11-22T03:05:09;3.42;;;2.62;;
82417;SDS011;72059;53.734;10.260;2023-11-22T03:07:36;3.22;;;2.77;;
82417;SDS011;72059;53.734;10.260;2023-11-22T03:10:04;4.12;;;3.30;;
82417;SDS011;72059;53.734;10.260;2023-11-22T03:12:33;4.42;;;2.95;;
82417;SDS011;72059;53.734;10.260;2023-11-22T03:15:01;4.22;;;2.90;;
82417;SDS011;72059;53.734;10.260;2023-11-22T03:17:28;3.00;;;2.75;;
82417;SDS011;72059;53.734;10.260;2023-11-22T03:19:56;4.30;;;3.05;;
82417;SDS011;72059;53.734;10.260;2023-11-22T03:22:26;4.60;;;3.55;;
82417;SDS011;72059;53.734;10.260;2023-11-22T03:24:59;4.35;;;3.25;;
82417;SDS011;72059;53.734;10.260;2023-11-22T03:27:26;4.28;;;3.15;;
82417;SDS011;72059;53.734;10.260;2023-11-22T03:29:53;3.33;;;2.98;;
82417;SDS011;72059;53.734;10.260;2023-11-22T03:32:21;5.10;;;2.95;;
82417;SDS011;72059;53.734;10.260;2023-11-22T03:34:48;3.08;;;2.47;;
82417;SDS011;72059;53.734;10.260;2023-11-22T03:37:16;2.35;;;2.15;;
82417;SDS011;72059;53.734;10.260;2023-11-22T03:39:43;3.35;;;2.72;;
82417;SDS011;72059;53.734;10.260;2023-11-22T03:42:12;3.30;;;2.33;;
82417;SDS011;72059;53.734;10.260;2023-11-22T03:44:44;3.15;;;2.50;;
82417;SDS011;72059;53.734;10.260;2023-11-22T03:47:12;2.83;;;2.58;;
82417;SDS011;72059;53.734;10.260;2023-11-22T03:49:41;2.70;;;2.27;;
82417;SDS011;72059;53.734;10.260;2023-11-22T03:52:10;2.55;;;2.33;;
82417;SDS011;72059;53.734;10.260;2023-11-22T03:54:38;2.47;;;2.25;;
82417;SDS011;72059;53.734;10.260;2023-11-22T03:57:05;2.30;;;1.72;;
82417;SDS011;72059;53.734;10.260;2023-11-22T03:59:34;2.42;;;2.20;;
82417;SDS011;72059;53.734;10.260;2023-11-22T04:02:02;2.42;;;1.80;;
82417;SDS011;72059;53.734;10.260;2023-11-22T04:04:29;2.05;;;1.67;;
82417;SDS011;72059;53.734;10.260;2023-11-22T04:06:57;2.15;;;1.90;;
82417;SDS011;72059;53.734;10.260;2023-11-22T04:09:24;2.30;;;2.10;;
82417;SDS011;72059;53.734;10.260;2023-11-22T04:11:51;1.90;;;1.70;;
82417;SDS011;72059;53.734;10.260;2023-11-22T04:14:19;2.85;;;1.98;;
82417;SDS011;72059;53.734;10.260;2023-11-22T04:16:47;1.77;;;1.62;;
82417;SDS011;72059;53.734;10.260;2023-11-22T04:19:14;2.50;;;1.82;;
82417;SDS011;72059;53.734;10.260;2023-11-22T04:21:42;1.98;;;1.77;;
82417;SDS011;72059;53.734;10.260;2023-11-22T04:24:10;3.77;;;2.70;;
82417;SDS011;72059;53.734;10.260;2023-11-22T04:26:38;4.58;;;3.22;;
82417;SDS011;72059;53.734;10.260;2023-11-22T04:29:05;3.90;;;2.60;;
82417;SDS011;72059;53.734;10.260;2023-11-22T04:31:32;2.85;;;2.25;;
82417;SDS011;72059;53.734;10.260;2023-11-22T04:34:00;2.50;;;2.10;;
82417;SDS011;72059;53.734;10.260;2023-11-22T04:36:27;3.80;;;2.55;;
82417;SDS011;72059;53.734;10.260;2023-11-22T04:38:55;2.58;;;2.30;;
82417;SDS011;72059;53.734;10.260;2023-11-22T04:41:22;2.40;;;2.20;;
82417;SDS011;72059;53.734;10.260;2023-11-22T04:43:51;2.20;;;2.00;;
82417;SDS011;72059;53.734;10.260;2023-11-22T04:46:19;2.47;;;2.17;;
82417;SDS011;72059;53.734;10.260;2023-11-22T04:48:46;2.65;;;2.42;;
82417;SDS011;72059;53.734;10.260;2023-11-22T04:51:15;3.62;;;2.50;;
82417;SDS011;72059;53.734;10.260;2023-11-22T04:53:43;3.98;;;2.87;;
82417;SDS011;72059;53.734;10.260;2023-11-22T04:56:10;4.08;;;2.52;;
82417;SDS011;72059;53.734;10.260;2023-11-22T04:58:38;2.45;;;2.00;;
82417;SDS011;72059;53.734;10.260;2023-11-22T05:01:05;2.77;;;2.50;;
82417;SDS011;72059;53.734;10.260;2023-11-22T05:03:34;2.95;;;2.40;;
82417;SDS011;72059;53.734;10.260;2023-11-22T05:06:03;2.98;;;2.40;;
82417;SDS011;72059;53.734;10.260;2023-11-22T05:08:30;2.95;;;2.27;;
82417;SDS011;72059;53.734;10.260;2023-11-22T05:10:58;2.50;;;2.22;;
82417;SDS011;72059;53.734;10.260;2023-11-22T05:13:26;2.60;;;2.30;;
82417;SDS011;72059;53.734;10.260;2023-11-22T05:15:53;2.37;;;2.17;;
82417;SDS011;72059;53.734;10.260;2023-11-22T05:18:21;4.12;;;2.47;;
82417;SDS011;72059;53.734;10.260;2023-11-22T05:20:48;3.47;;;3.00;;
82417;SDS011;72059;53.734;10.260;2023-11-22T05:23:15;3.85;;;3.05;;
82417;SDS011;72059;53.734;10.260;2023-11-22T05:25:43;4.65;;;3.50;;
82417;SDS011;72059;53.734;10.260;2023-11-22T05:28:11;4.95;;;3.27;;
82417;SDS011;72059;53.734;10.260;2023-11-22T05:30:38;4.35;;;2.90;;
82417;SDS011;72059;53.734;10.260;2023-11-22T05:33:06;3.65;;;3.22;;
82417;SDS011;72059;53.734;10.260;2023-11-22T05:35:34;4.22;;;3.27;;
82417;SDS011;72059;53.734;10.260;2023-11-22T05:38:01;4.28;;;3.22;;
82417;SDS011;72059;53.734;10.260;2023-11-22T05:40:28;3.37;;;2.95;;
82417;SDS011;72059;53.734;10.260;2023-11-22T05:42:56;3.52;;;2.90;;
82417;SDS011;72059;53.734;10.260;2023-11-22T05:45:23;4.00;;;3.42;;
82417;SDS011;72059;53.734;10.260;2023-11-22T05:47:51;4.37;;;3.37;;
82417;SDS011;72059;53.734;10.260;2023-11-22T05:50:18;3.65;;;2.70;;
82417;SDS011;72059;53.734;10.260;2023-11-22T05:52:46;5.15;;;2.75;;
82417;SDS011;72059;53.734;10.260;2023-11-22T05:55:13;3.40;;;3.10;;
82417;SDS011;72059;53.734;10.260;2023-11-22T05:57:41;5.10;;;3.30;;
82417;SDS011;72059;53.734;10.260;2023-11-22T06:00:08;4.47;;;3.05;;
82417;SDS011;72059;53.734;10.260;2023-11-22T06:02:36;3.92;;;3.33;;
82417;SDS011;72059;53.734;10.260;2023-11-22T06:05:04;3.30;;;3.00;;
82417;SDS011;72059;53.734;10.260;2023-11-22T06:07:32;4.05;;;3.17;;
82417;SDS011;72059;53.734;10.260;2023-11-22T06:09:59;4.87;;;3.42;;
82417;SDS011;72059;53.734;10.260;2023-11-22T06:12:28;4.25;;;3.22;;
82417;SDS011;72059;53.734;10.260;2023-11-22T06:14:55;4.00;;;3.27;;
82417;SDS011;72059;53.734;10.260;2023-11-22T06:17:23;4.60;;;3.60;;
82417;SDS011;72059;53.734;10.260;2023-11-22T06:19:50;4.80;;;3.40;;
82417;SDS011;72059;53.734;10.260;2023-11-22T06:22:17;4.58;;;2.87;;
82417;SDS011;72059;53.734;10.260;2023-11-22T06:24:45;4.95;;;3.75;;
82417;SDS011;72059;53.734;10.260;2023-11-22T06:27:13;7.28;;;4.50;;
82417;SDS011;72059;53.734;10.260;2023-11-22T06:29:41;6.10;;;4.37;;
82417;SDS011;72059;53.734;10.260;2023-11-22T06:32:12;5.17;;;3.45;;
82417;SDS011;72059;53.734;10.260;2023-11-22T06:34:39;6.28;;;4.00;;
82417;SDS011;72059;53.734;10.260;2023-11-22T06:37:07;6.67;;;4.47;;
82417;SDS011;72059;53.734;10.260;2023-11-22T06:39:34;5.45;;;4.10;;
82417;SDS011;72059;53.734;10.260;2023-11-22T06:42:03;7.80;;;4.47;;
82417;SDS011;72059;53.734;10.260;2023-11-22T06:44:30;4.80;;;3.92;;
82417;SDS011;72059;53.734;10.260;2023-11-22T06:46:58;4.67;;;3.55;;
82417;SDS011;72059;53.734;10.260;2023-11-22T06:49:25;4.72;;;3.70;;
82417;SDS011;72059;53.734;10.260;2023-11-22T06:51:53;5.28;;;3.52;;
82417;SDS011;72059;53.734;10.260;2023-11-22T06:54:21;4.25;;;3.45;;
82417;SDS011;72059;53.734;10.260;2023-11-22T06:56:49;5.15;;;3.50;;
82417;SDS011;72059;53.734;10.260;2023-11-22T06:59:16;5.12;;;3.72;;
82417;SDS011;72059;53.734;10.260;2023-11-22T07:01:44;5.20;;;3.70;;
82417;SDS011;72059;53.734;10.260;2023-11-22T07:04:11;4.33;;;3.17;;
82417;SDS011;72059;53.734;10.260;2023-11-22T07:06:39;5.42;;;3.80;;
82417;SDS011;72059;53.734;10.260;2023-11-22T07:09:08;5.72;;;3.87;;
82417;SDS011;72059;53.734;10.260;2023-11-22T07:11:36;4.85;;;3.65;;
82417;SDS011;72059;53.734;10.260;2023-11-22T07:14:03;4.70;;;3.47;;
82417;SDS011;72059;53.734;10.260;2023-11-22T07:16:31;6.92;;;4.12;;
82417;SDS011;72059;53.734;10.260;2023-11-22T07:18:59;6.53;;;3.90;;
82417;SDS011;72059;53.734;10.260;2023-11-22T07:21:29;5.45;;;3.35;;
82417;SDS011;72059;53.734;10.260;2023-11-22T07:23:57;6.15;;;3.80;;
82417;SDS011;72059;53.734;10.260;2023-11-22T07:26:27;5.08;;;3.35;;
82417;SDS011;72059;53.734;10.260;2023-11-22T07:28:55;5.90;;;3.33;;
82417;SDS011;72059;53.734;10.260;2023-11-22T07:31:23;4.67;;;3.47;;
82417;SDS011;72059;53.734;10.260;2023-11-22T07:33:50;5.58;;;3.50;;
82417;SDS011;72059;53.734;10.260;2023-11-22T07:36:18;3.83;;;2.85;;
82417;SDS011;72059;53.734;10.260;2023-11-22T07:38:46;3.15;;;2.55;;
82417;SDS011;72059;53.734;10.260;2023-11-22T07:41:13;3.20;;;2.58;;
82417;SDS011;72059;53.734;10.260;2023-11-22T07:43:41;3.05;;;2.40;;
82417;SDS011;72059;53.734;10.260;2023-11-22T07:46:10;3.67;;;2.12;;
82417;SDS011;72059;53.734;10.260;2023-11-22T07:48:41;6.85;;;4.03;;
82417;SDS011;72059;53.734;10.260;2023-11-22T07:51:10;5.97;;;4.15;;
82417;SDS011;72059;53.734;10.260;2023-11-22T07:53:41;6.87;;;4.10;;
82417;SDS011;72059;53.734;10.260;2023-11-22T07:56:09;8.93;;;4.70;;
82417;SDS011;72059;53.734;10.260;2023-11-22T07:58:37;7.05;;;5.35;;
82417;SDS011;72059;53.734;10.260;2023-11-22T08:01:05;8.35;;;5.72;;
82417;SDS011;72059;53.734;10.260;2023-11-22T08:03:34;8.60;;;5.58;;
82417;SDS011;72059;53.734;10.260;2023-11-22T08:06:01;8.63;;;5.45;;
82417;SDS011;72059;53.734;10.260;2023-11-22T08:08:30;8.05;;;5.37;;
82417;SDS011;72059;53.734;10.260;2023-11-22T08:10:59;6.20;;;4.78;;
82417;SDS011;72059;53.734;10.260;2023-11-22T08:13:27;5.08;;;4.08;;
82417;SDS011;72059;53.734;10.260;2023-11-22T08:15:55;4.30;;;3.80;;
82417;SDS011;72059;53.734;10.260;2023-11-22T08:18:23;4.05;;;3.62;;
82417;SDS011;72059;53.734;10.260;2023-11-22T08:20:52;6.03;;;3.72;;
82417;SDS011;72059;53.734;10.260;2023-11-22T08:23:19;3.37;;;3.00;;
82417;SDS011;72059;53.734;10.260;2023-11-22T08:25:47;3.92;;;3.10;;
82417;SDS011;72059;53.734;10.260;2023-11-22T08:28:14;3.55;;;2.90;;
82417;SDS011;72059;53.734;10.260;2023-11-22T08:30:42;4.22;;;3.22;;
82417;SDS011;72059;53.734;10.260;2023-11-22T08:33:10;4.15;;;3.33;;
82417;SDS011;72059;53.734;10.260;2023-11-22T08:35:37;4.47;;;3.22;;
82417;SDS011;72059;53.734;10.260;2023-11-22T08:38:04;2.80;;;2.50;;
82417;SDS011;72059;53.734;10.260;2023-11-22T08:40:33;3.80;;;2.98;;
82417;SDS011;72059;53.734;10.260;2023-11-22T08:43:03;4.35;;;2.80;;
82417;SDS011;72059;53.734;10.260;2023-11-22T08:45:30;3.33;;;2.40;;
82417;SDS011;72059;53.734;10.260;2023-11-22T08:47:58;3.45;;;2.70;;
82417;SDS011;72059;53.734;10.260;2023-11-22T08:50:26;2.42;;;2.22;;
82417;SDS011;72059;53.734;10.260;2023-11-22T08:52:53;3.05;;;2.37;;
82417;SDS011;72059;53.734;10.260;2023-11-22T08:55:22;2.85;;;2.10;;
82417;SDS011;72059;53.734;10.260;2023-11-22T08:57:50;2.45;;;2.22;;
82417;SDS011;72059;53.734;10.260;2023-11-22T09:00:18;2.30;;;2.10;;
82417;SDS011;72059;53.734;10.260;2023-11-22T09:02:51;2.33;;;2.12;;
82417;SDS011;72059;53.734;10.260;2023-11-22T09:05:18;3.05;;;2.35;;
82417;SDS011;72059;53.734;10.260;2023-11-22T09:07:47;2.52;;;2.33;;
82417;SDS011;72059;53.734;10.260;2023-11-22T09:10:14;2.25;;;2.05;;
82417;SDS011;72059;53.734;10.260;2023-11-22T09:12:44;2.35;;;2.15;;
82417;SDS011;72059;53.734;10.260;2023-11-22T09:15:13;3.30;;;2.17;;
82417;SDS011;72059;53.734;10.260;2023-11-22T09:17:45;2.30;;;2.10;;
82417;SDS011;72059;53.734;10.260;2023-11-22T09:20:14;2.60;;;2.20;;
82417;SDS011;72059;53.734;10.260;2023-11-22T09:22:42;2.60;;;2.40;;
82417;SDS011;72059;53.734;10.260;2023-11-22T09:25:19;3.00;;;2.58;;
82417;SDS011;72059;53.734;10.260;2023-11-22T09:27:45;2.67;;;1.82;;
82417;SDS011;72059;53.734;10.260;2023-11-22T09:30:16;2.50;;;1.95;;
82417;SDS011;72059;53.734;10.260;2023-11-22T09:33:08;2.72;;;2.10;;
82417;SDS011;72059;53.734;10.260;2023-11-22T09:35:36;2.50;;;2.30;;
82417;SDS011;72059;53.734;10.260;2023-11-22T09:38:05;3.60;;;2.72;;
82417;SDS011;72059;53.734;10.260;2023-11-22T09:40:35;2.67;;;2.45;;
82417;SDS011;72059;53.734;10.260;2023-11-22T09:43:05;3.60;;;2.62;;
82417;SDS011;72059;53.734;10.260;2023-11-22T09:45:33;2.87;;;2.45;;
82417;SDS011;72059;53.734;10.260;2023-11-22T09:48:02;2.83;;;2.60;;
82417;SDS011;72059;53.734;10.260;2023-11-22T09:50:35;4.70;;;3.72;;
82417;SDS011;72059;53.734;10.260;2023-11-22T09:53:02;4.15;;;3.72;;
82417;SDS011;72059;53.734;10.260;2023-11-22T09:55:32;7.20;;;5.05;;
82417;SDS011;72059;53.734;10.260;2023-11-22T09:58:00;6.72;;;5.10;;
82417;SDS011;72059;53.734;10.260;2023-11-22T10:00:29;5.75;;;4.83;;
82417;SDS011;72059;53.734;10.260;2023-11-22T10:02:57;5.25;;;4.53;;
82417;SDS011;72059;53.734;10.260;2023-11-22T10:05:24;5.12;;;4.62;;
82417;SDS011;72059;53.734;10.260;2023-11-22T10:07:54;6.75;;;5.40;;
82417;SDS011;72059;53.734;10.260;2023-11-22T10:10:21;4.85;;;4.22;;
82417;SDS011;72059;53.734;10.260;2023-11-22T10:12:50;4.83;;;4.22;;
82417;SDS011;72059;53.734;10.260;2023-11-22T10:15:21;4.72;;;3.83;;
82417;SDS011;72059;53.734;10.260;2023-11-22T10:17:56;4.90;;;3.62;;
82417;SDS011;72059;53.734;10.260;2023-11-22T10:20:38;5.33;;;4.47;;
82417;SDS011;72059;53.734;10.260;2023-11-22T10:23:13;5.05;;;4.35;;
82417;SDS011;72059;53.734;10.260;2023-11-22T10:25:45;4.83;;;3.92;;
82417;SDS011;72059;53.734;10.260;2023-11-22T10:28:16;5.97;;;4.53;;
82417;SDS011;72059;53.734;10.260;2023-11-22T10:30:50;5.85;;;4.28;;
82417;SDS011;72059;53.734;10.260;2023-11-22T10:33:13;5.70;;;3.70;;
82417;SDS011;72059;53.734;10.260;2023-11-22T10:35:45;3.98;;;3.42;;
82417;SDS011;72059;53.734;10.260;2023-11-22T10:38:14;4.20;;;3.55;;
82417;SDS011;72059;53.734;10.260;2023-11-22T10:43:18;5.42;;;3.37;;
82417;SDS011;72059;53.734;10.260;2023-11-22T10:45:43;4.05;;;3.62;;
82417;SDS011;72059;53.734;10.260;2023-11-22T10:48:18;4.33;;;3.90;;
82417;SDS011;72059;53.734;10.260;2023-11-22T10:50:42;4.40;;;3.77;;
82417;SDS011;72059;53.734;10.260;2023-11-22T10:53:16;5.50;;;4.15;;
82417;SDS011;72059;53.734;10.260;2023-11-22T10:55:48;4.30;;;3.90;;
82417;SDS011;72059;53.734;10.260;2023-11-22T10:58:13;6.15;;;4.55;;
82417;SDS011;72059;53.734;10.260;2023-11-22T11:00:42;7.22;;;4.55;;
82417;SDS011;72059;53.734;10.260;2023-11-22T11:03:13;4.53;;;3.90;;
82417;SDS011;72059;53.734;10.260;2023-11-22T11:05:52;4.22;;;3.25;;
82417;SDS011;72059;53.734;10.260;2023-11-22T11:08:20;3.95;;;3.50;;
82417;SDS011;72059;53.734;10.260;2023-11-22T11:10:49;4.03;;;3.62;;
82417;SDS011;72059;53.734;10.260;2023-11-22T11:13:19;3.72;;;3.27;;
82417;SDS011;72059;53.734;10.260;2023-11-22T11:15:46;3.52;;;3.22;;
82417;SDS011;72059;53.734;10.260;2023-11-22T11:18:14;3.83;;;3.30;;
82417;SDS011;72059;53.734;10.260;2023-11-22T11:20:48;3.58;;;3.27;;
82417;SDS011;72059;53.734;10.260;2023-11-22T11:23:25;4.85;;;3.55;;
82417;SDS011;72059;53.734;10.260;2023-11-22T11:25:59;5.17;;;3.90;;
82417;SDS011;72059;53.734;10.260;2023-11-22T11:28:24;4.65;;;3.67;;
82417;SDS011;72059;53.734;10.260;2023-11-22T11:30:52;4.30;;;3.90;;
82417;SDS011;72059;53.734;10.260;2023-11-22T11:33:26;5.53;;;3.80;;
82417;SDS011;72059;53.734;10.260;2023-11-22T11:36:02;5.85;;;3.98;;
82417;SDS011;72059;53.734;10.260;2023-11-22T11:38:31;4.45;;;3.30;;
82417;SDS011;72059;53.734;10.260;2023-11-22T11:41:06;4.53;;;4.10;;
82417;SDS011;72059;53.734;10.260;2023-11-22T11:43:42;3.98;;;3.55;;
82417;SDS011;72059;53.734;10.260;2023-11-22T11:46:11;5.50;;;4.40;;
82417;SDS011;72059;53.734;10.260;2023-11-22T11:48:43;6.37;;;4.53;;
82417;SDS011;72059;53.734;10.260;2023-11-22T11:53:42;7.25;;;4.53;;
82417;SDS011;72059;53.734;10.260;2023-11-22T11:56:11;6.35;;;4.83;;
82417;SDS011;72059;53.734;10.260;2023-11-22T11:58:40;5.55;;;4.62;;
82417;SDS011;72059;53.734;10.260;2023-11-22T12:01:11;4.62;;;4.03;;
82417;SDS011;72059;53.734;10.260;2023-11-22T12:03:39;4.30;;;3.90;;
82417;SDS011;72059;53.734;10.260;2023-11-22T12:06:07;5.22;;;4.05;;
82417;SDS011;72059;53.734;10.260;2023-11-22T12:08:34;6.85;;;4.20;;
82417;SDS011;72059;53.734;10.260;2023-11-22T12:11:02;4.45;;;3.87;;
82417;SDS011;72059;53.734;10.260;2023-11-22T12:13:31;4.00;;;3.52;;
82417;SDS011;72059;53.734;10.260;2023-11-22T12:16:00;4.85;;;3.92;;
82417;SDS011;72059;53.734;10.260;2023-11-22T12:18:29;5.10;;;3.85;;
82417;SDS011;72059;53.734;10.260;2023-11-22T12:20:58;4.53;;;4.08;;
82417;SDS011;72059;53.734;10.260;2023-11-22T12:23:26;4.65;;;3.67;;
82417;SDS011;72059;53.734;10.260;2023-11-22T12:25:55;4.95;;;4.12;;
82417;SDS011;72059;53.734;10.260;2023-11-22T12:28:24;4.95;;;3.83;;
82417;SDS011;72059;53.734;10.260;2023-11-22T12:30:55;5.17;;;3.47;;
82417;SDS011;72059;53.734;10.260;2023-11-22T12:33:25;4.97;;;3.83;;
82417;SDS011;72059;53.734;10.260;2023-11-22T12:35:54;4.12;;;3.40;;
82417;SDS011;72059;53.734;10.260;2023-11-22T12:38:21;4.70;;;4.20;;
82417;SDS011;72059;53.734;10.260;2023-11-22T12:40:51;5.30;;;3.67;;
82417;SDS011;72059;53.734;10.260;2023-11-22T12:43:20;5.85;;;4.83;;
82417;SDS011;72059;53.734;10.260;2023-11-22T12:45:52;4.90;;;4.10;;
82417;SDS011;72059;53.734;10.260;2023-11-22T12:50:51;6.25;;;4.40;;
82417;SDS011;72059;53.734;10.260;2023-11-22T12:53:19;5.03;;;3.85;;
82417;SDS011;72059;53.734;10.260;2023-11-22T12:58:19;4.08;;;3.02;;
82417;SDS011;72059;53.734;10.260;2023-11-22T13:00:54;5.47;;;3.65;;
82417;SDS011;72059;53.734;10.260;2023-11-22T13:03:26;3.08;;;2.77;;
82417;SDS011;72059;53.734;10.260;2023-11-22T13:05:54;3.62;;;3.30;;
82417;SDS011;72059;53.734;10.260;2023-11-22T13:08:22;3.55;;;3.25;;
82417;SDS011;72059;53.734;10.260;2023-11-22T13:10:51;3.20;;;2.90;;
82417;SDS011;72059;53.734;10.260;2023-11-22T13:13:23;3.45;;;2.92;;
82417;SDS011;72059;53.734;10.260;2023-11-22T13:15:52;5.30;;;3.10;;
82417;SDS011;72059;53.734;10.260;2023-11-22T13:18:19;3.22;;;2.90;;
82417;SDS011;72059;53.734;10.260;2023-11-22T13:20:50;3.83;;;3.10;;
82417;SDS011;72059;53.734;10.260;2023-11-22T13:23:17;4.03;;;2.50;;
82417;SDS011;72059;53.734;10.260;2023-11-22T13:25:45;2.58;;;2.37;;
82417;SDS011;72059;53.734;10.260;2023-11-22T13:28:12;4.00;;;2.12;;
82417;SDS011;72059;53.734;10.260;2023-11-22T13:30:40;2.87;;;2.40;;
82417;SDS011;72059;53.734;10.260;2023-11-22T13:33:07;2.70;;;2.50;;
82417;SDS011;72059;53.734;10.260;2023-11-22T13:35:35;2.17;;;1.98;;
82417;SDS011;72059;53.734;10.260;2023-11-22T13:38:03;3.40;;;2.58;;
82417;SDS011;72059;53.734;10.260;2023-11-22T13:40:32;3.33;;;2.52;;
82417;SDS011;72059;53.734;10.260;2023-11-22T13:43:00;4.15;;;2.37;;
82417;SDS011;72059;53.734;10.260;2023-11-22T13:45:29;3.98;;;2.70;;
82417;SDS011;72059;53.734;10.260;2023-11-22T13:47:56;3.40;;;2.45;;
82417;SDS011;72059;53.734;10.260;2023-11-22T13:50:25;3.67;;;2.22;;
82417;SDS011;72059;53.734;10.260;2023-11-22T13:52:53;2.37;;;2.17;;
82417;SDS011;72059;53.734;10.260;2023-11-22T13:55:22;2.70;;;2.22;;
82417;SDS011;72059;53.734;10.260;2023-11-22T13:57:59;2.52;;;1.80;;
82417;SDS011;72059;53.734;10.260;2023-11-22T14:00:28;2.60;;;2.08;;
82417;SDS011;72059;53.734;10.260;2023-11-22T14:03:00;2.58;;;2.37;;
82417;SDS011;72059;53.734;10.260;2023-11-22T14:05:33;3.10;;;1.75;;
82417;SDS011;72059;53.734;10.260;2023-11-22T14:08:02;2.35;;;2.15;;
82417;SDS011;72059;53.734;10.260;2023-11-22T14:10:31;3.22;;;2.33;;
82417;SDS011;72059;53.734;10.260;2023-11-22T14:12:59;2.65;;;2.20;;
82417;SDS011;72059;53.734;10.260;2023-11-22T14:15:28;2.00;;;1.90;;
82417;SDS011;72059;53.734;10.260;2023-11-22T14:17:56;2.72;;;2.25;;
82417;SDS011;72059;53.734;10.260;2023-11-22T14:20:23;1.98;;;1.72;;
82417;SDS011;72059;53.734;10.260;2023-11-22T14:22:51;3.70;;;2.33;;
82417;SDS011;72059;53.734;10.260;2023-11-22T14:25:18;2.83;;;2.10;;
82417;SDS011;72059;53.734;10.260;2023-11-22T14:27:46;2.37;;;2.12;;
82417;SDS011;72059;53.734;10.260;2023-11-22T14:30:16;2.22;;;1.70;;
82417;SDS011;72059;53.734;10.260;2023-11-22T14:32:45;2.30;;;2.02;;
82417;SDS011;72059;53.734;10.260;2023-11-22T14:35:12;1.75;;;1.60;;
82417;SDS011;72059;53.734;10.260;2023-11-22T14:37:40;2.25;;;1.57;;
82417;SDS011;72059;53.734;10.260;2023-11-22T14:40:08;2.80;;;1.40;;
82417;SDS011;72059;53.734;10.260;2023-11-22T14:42:43;2.02;;;1.27;;
82417;SDS011;72059;53.734;10.260;2023-11-22T14:45:13;1.62;;;1.52;;
82417;SDS011;72059;53.734;10.260;2023-11-22T14:47:40;1.65;;;1.32;;
82417;SDS011;72059;53.734;10.260;2023-11-22T14:50:09;2.40;;;1.55;;
82417;SDS011;72059;53.734;10.260;2023-11-22T14:52:38;1.55;;;1.45;;